sensor_id;sensor_type;location;lat;lon;timestamp;temperature;humidity
939;DHT22;456;53.584;9.968;2023-06-22T00:02:13;19.20;41.20
939;DHT22;456;53.584;9.968;2023-06-22T00:04:38;19.20;39.90
939;DHT22;456;53.584;9.968;2023-06-22T00:07:04;19.20;40.80
939;DHT22;456;53.584;9.968;2023-06-22T00:09:30;19.20;40.50
939;DHT22;456;53.584;9.968;2023-06-22T00:11:56;19.20;40.70
939;DHT22;456;53.584;9.968;2023-06-22T00:14:21;19.20;41.30
939;DHT22;456;53.584;9.968;2023-06-22T00:16:47;19.20;40.10
939;DHT22;456;53.584;9.968;2023-06-22T00:19:15;19.20;41.10
939;DHT22;456;53.584;9.968;2023-06-22T00:21:40;19.20;40.40
939;DHT22;456;53.584;9.968;2023-06-22T00:24:06;19.20;40.60
939;DHT22;456;53.584;9.968;2023-06-22T00:26:32;19.20;41.20
939;DHT22;456;53.584;9.968;2023-06-22T00:28:57;19.20;40.40
939;DHT22;456;53.584;9.968;2023-06-22T00:31:23;19.20;41.30
939;DHT22;456;53.584;9.968;2023-06-22T00:33:48;19.20;40.20
939;DHT22;456;53.584;9.968;2023-06-22T00:36:16;19.20;41.10
939;DHT22;456;53.584;9.968;2023-06-22T00:38:43;19.20;41.00
939;DHT22;456;53.584;9.968;2023-06-22T00:41:09;19.20;40.40
939;DHT22;456;53.584;9.968;2023-06-22T00:43:34;19.20;41.60
939;DHT22;456;53.584;9.968;2023-06-22T00:46:00;19.20;40.30
939;DHT22;456;53.584;9.968;2023-06-22T00:48:26;19.20;40.50
939;DHT22;456;53.584;9.968;2023-06-22T00:50:52;19.20;41.10
939;DHT22;456;53.584;9.968;2023-06-22T00:53:19;19.20;40.70
939;DHT22;456;53.584;9.968;2023-06-22T00:55:45;19.20;41.70
939;DHT22;456;53.584;9.968;2023-06-22T00:58:17;19.20;40.10
939;DHT22;456;53.584;9.968;2023-06-22T01:00:47;19.20;40.90
939;DHT22;456;53.584;9.968;2023-06-22T01:03:13;19.20;40.80
939;DHT22;456;53.584;9.968;2023-06-22T01:05:39;19.20;40.80
939;DHT22;456;53.584;9.968;2023-06-22T01:08:31;19.20;41.50
939;DHT22;456;53.584;9.968;2023-06-22T01:13:55;19.20;41.60
939;DHT22;456;53.584;9.968;2023-06-22T01:16:34;19.20;40.30
939;DHT22;456;53.584;9.968;2023-06-22T01:19:13;19.20;41.20
939;DHT22;456;53.584;9.968;2023-06-22T01:21:43;19.20;40.40
939;DHT22;456;53.584;9.968;2023-06-22T01:29:16;19.20;40.60
939;DHT22;456;53.584;9.968;2023-06-22T01:31:43;19.20;41.80
939;DHT22;456;53.584;9.968;2023-06-22T01:34:11;19.20;40.30
939;DHT22;456;53.584;9.968;2023-06-22T01:36:39;19.20;40.70
939;DHT22;456;53.584;9.968;2023-06-22T01:39:05;19.20;40.90
939;DHT22;456;53.584;9.968;2023-06-22T01:41:34;19.20;40.70
939;DHT22;456;53.584;9.968;2023-06-22T01:44:01;19.20;41.80
939;DHT22;456;53.584;9.968;2023-06-22T01:46:27;19.20;40.20
939;DHT22;456;53.584;9.968;2023-06-22T01:48:53;19.20;41.10
939;DHT22;456;53.584;9.968;2023-06-22T01:51:19;19.20;40.70
939;DHT22;456;53.584;9.968;2023-06-22T01:53:44;19.20;41.00
939;DHT22;456;53.584;9.968;2023-06-22T01:56:11;19.20;41.60
939;DHT22;456;53.584;9.968;2023-06-22T01:58:42;19.20;40.00
939;DHT22;456;53.584;9.968;2023-06-22T02:01:12;19.20;41.20
939;DHT22;456;53.584;9.968;2023-06-22T02:03:57;19.20;40.40
939;DHT22;456;53.584;9.968;2023-06-22T02:06:31;19.20;40.80
939;DHT22;456;53.584;9.968;2023-06-22T02:09:02;19.20;41.00
939;DHT22;456;53.584;9.968;2023-06-22T02:11:32;19.20;40.80
939;DHT22;456;53.584;9.968;2023-06-22T02:13:58;19.20;41.70
939;DHT22;456;53.584;9.968;2023-06-22T02:16:24;19.20;40.10
939;DHT22;456;53.584;9.968;2023-06-22T02:18:51;19.20;41.30
939;DHT22;456;53.584;9.968;2023-06-22T02:21:19;19.20;40.60
939;DHT22;456;53.584;9.968;2023-06-22T02:23:44;19.20;41.10
939;DHT22;456;53.584;9.968;2023-06-22T02:26:10;19.20;41.40
939;DHT22;456;53.584;9.968;2023-06-22T02:28:36;19.20;40.00
939;DHT22;456;53.584;9.968;2023-06-22T02:31:01;19.20;41.20
939;DHT22;456;53.584;9.968;2023-06-22T02:33:27;19.20;40.40
939;DHT22;456;53.584;9.968;2023-06-22T02:35:53;19.20;40.80
939;DHT22;456;53.584;9.968;2023-06-22T02:38:18;19.20;41.30
939;DHT22;456;53.584;9.968;2023-06-22T02:40:45;19.20;40.10
939;DHT22;456;53.584;9.968;2023-06-22T02:43:11;19.20;41.10
939;DHT22;456;53.584;9.968;2023-06-22T02:45:37;19.20;40.40
939;DHT22;456;53.584;9.968;2023-06-22T02:48:03;19.20;40.80
939;DHT22;456;53.584;9.968;2023-06-22T02:50:28;19.20;41.20
939;DHT22;456;53.584;9.968;2023-06-22T02:52:54;19.20;40.30
939;DHT22;456;53.584;9.968;2023-06-22T02:55:20;19.20;41.10
939;DHT22;456;53.584;9.968;2023-06-22T02:57:45;19.20;40.20
939;DHT22;456;53.584;9.968;2023-06-22T03:00:13;19.20;41.20
939;DHT22;456;53.584;9.968;2023-06-22T03:02:47;19.20;41.30
939;DHT22;456;53.584;9.968;2023-06-22T03:05:16;19.20;40.50
939;DHT22;456;53.584;9.968;2023-06-22T03:07:44;19.20;41.70
939;DHT22;456;53.584;9.968;2023-06-22T03:10:10;19.20;40.00
939;DHT22;456;53.584;9.968;2023-06-22T03:12:37;19.20;40.90
939;DHT22;456;53.584;9.968;2023-06-22T03:15:07;19.20;40.80
939;DHT22;456;53.584;9.968;2023-06-22T03:17:34;19.20;40.80
939;DHT22;456;53.584;9.968;2023-06-22T03:20:01;19.20;41.80
939;DHT22;456;53.584;9.968;2023-06-22T03:22:26;19.20;40.10
939;DHT22;456;53.584;9.968;2023-06-22T03:24:52;19.20;41.00
939;DHT22;456;53.584;9.968;2023-06-22T03:27:17;19.20;40.40
939;DHT22;456;53.584;9.968;2023-06-22T03:29:44;19.30;40.80
939;DHT22;456;53.584;9.968;2023-06-22T03:32:10;19.20;41.40
939;DHT22;456;53.584;9.968;2023-06-22T03:34:35;19.20;40.00
939;DHT22;456;53.584;9.968;2023-06-22T03:37:01;19.20;41.20
939;DHT22;456;53.584;9.968;2023-06-22T03:39:28;19.20;40.60
939;DHT22;456;53.584;9.968;2023-06-22T03:41:54;19.20;40.50
939;DHT22;456;53.584;9.968;2023-06-22T03:44:19;19.20;41.30
939;DHT22;456;53.584;9.968;2023-06-22T03:46:45;19.20;40.10
939;DHT22;456;53.584;9.968;2023-06-22T03:49:10;19.20;41.00
939;DHT22;456;53.584;9.968;2023-06-22T03:51:36;19.20;40.40
939;DHT22;456;53.584;9.968;2023-06-22T03:54:01;19.20;40.80
939;DHT22;456;53.584;9.968;2023-06-22T03:56:28;19.20;41.10
939;DHT22;456;53.584;9.968;2023-06-22T03:58:53;19.20;40.20
939;DHT22;456;53.584;9.968;2023-06-22T04:01:19;19.20;41.40
939;DHT22;456;53.584;9.968;2023-06-22T04:03:44;19.20;40.30
939;DHT22;456;53.584;9.968;2023-06-22T04:06:10;19.30;41.20
939;DHT22;456;53.584;9.968;2023-06-22T04:08:36;19.20;41.10
939;DHT22;456;53.584;9.968;2023-06-22T04:11:01;19.20;40.40
939;DHT22;456;53.584;9.968;2023-06-22T04:13:27;19.20;41.10
939;DHT22;456;53.584;9.968;2023-06-22T04:15:52;19.20;40.20
939;DHT22;456;53.584;9.968;2023-06-22T04:18:18;19.20;40.70
939;DHT22;456;53.584;9.968;2023-06-22T04:20:43;19.20;41.00
939;DHT22;456;53.584;9.968;2023-06-22T04:23:12;19.20;40.60
939;DHT22;456;53.584;9.968;2023-06-22T04:25:38;19.20;41.60
939;DHT22;456;53.584;9.968;2023-06-22T04:28:03;19.20;40.20
939;DHT22;456;53.584;9.968;2023-06-22T04:30:29;19.20;40.70
939;DHT22;456;53.584;9.968;2023-06-22T04:32:57;19.20;40.80
939;DHT22;456;53.584;9.968;2023-06-22T04:35:25;19.20;40.70
939;DHT22;456;53.584;9.968;2023-06-22T04:37:53;19.20;41.60
939;DHT22;456;53.584;9.968;2023-06-22T04:40:23;19.20;40.10
939;DHT22;456;53.584;9.968;2023-06-22T04:42:49;19.20;40.90
939;DHT22;456;53.584;9.968;2023-06-22T04:45:20;19.20;40.60
939;DHT22;456;53.584;9.968;2023-06-22T04:47:46;19.20;40.90
939;DHT22;456;53.584;9.968;2023-06-22T04:50:12;19.20;41.40
939;DHT22;456;53.584;9.968;2023-06-22T04:52:38;19.20;40.00
939;DHT22;456;53.584;9.968;2023-06-22T04:55:04;19.20;41.20
939;DHT22;456;53.584;9.968;2023-06-22T04:57:30;19.20;40.60
939;DHT22;456;53.584;9.968;2023-06-22T05:00:00;19.20;40.80
939;DHT22;456;53.584;9.968;2023-06-22T05:02:39;19.20;41.30
939;DHT22;456;53.584;9.968;2023-06-22T05:05:05;19.20;40.40
939;DHT22;456;53.584;9.968;2023-06-22T05:07:33;19.20;41.70
939;DHT22;456;53.584;9.968;2023-06-22T05:09:59;19.20;40.20
939;DHT22;456;53.584;9.968;2023-06-22T05:12:25;19.20;40.70
939;DHT22;456;53.584;9.968;2023-06-22T05:14:50;19.20;40.80
939;DHT22;456;53.584;9.968;2023-06-22T05:17:16;19.30;40.70
939;DHT22;456;53.584;9.968;2023-06-22T05:19:44;19.20;41.60
939;DHT22;456;53.584;9.968;2023-06-22T05:22:17;19.20;40.00
939;DHT22;456;53.584;9.968;2023-06-22T05:24:43;19.20;40.80
939;DHT22;456;53.584;9.968;2023-06-22T05:27:09;19.20;40.70
939;DHT22;456;53.584;9.968;2023-06-22T05:29:35;19.30;41.00
939;DHT22;456;53.584;9.968;2023-06-22T05:32:01;19.20;41.60
939;DHT22;456;53.584;9.968;2023-06-22T05:34:27;19.20;40.00
939;DHT22;456;53.584;9.968;2023-06-22T05:36:52;19.20;40.90
939;DHT22;456;53.584;9.968;2023-06-22T05:39:18;19.20;40.60
939;DHT22;456;53.584;9.968;2023-06-22T05:41:44;19.30;40.90
939;DHT22;456;53.584;9.968;2023-06-22T05:44:10;19.20;41.30
939;DHT22;456;53.584;9.968;2023-06-22T05:46:36;19.20;39.90
939;DHT22;456;53.584;9.968;2023-06-22T05:49:01;19.30;41.10
939;DHT22;456;53.584;9.968;2023-06-22T05:51:27;19.20;40.40
939;DHT22;456;53.584;9.968;2023-06-22T05:53:53;19.30;40.80
939;DHT22;456;53.584;9.968;2023-06-22T05:56:18;19.20;41.20
939;DHT22;456;53.584;9.968;2023-06-22T05:58:45;19.20;39.90
939;DHT22;456;53.584;9.968;2023-06-22T06:01:10;19.30;41.00
939;DHT22;456;53.584;9.968;2023-06-22T06:03:36;19.20;40.60
939;DHT22;456;53.584;9.968;2023-06-22T06:06:06;19.30;40.80
939;DHT22;456;53.584;9.968;2023-06-22T06:08:32;19.20;41.10
939;DHT22;456;53.584;9.968;2023-06-22T06:10:57;19.30;40.40
939;DHT22;456;53.584;9.968;2023-06-22T06:13:23;19.20;41.10
939;DHT22;456;53.584;9.968;2023-06-22T06:15:49;19.20;40.10
939;DHT22;456;53.584;9.968;2023-06-22T06:18:17;19.30;40.50
939;DHT22;456;53.584;9.968;2023-06-22T06:20:42;19.20;40.80
939;DHT22;456;53.584;9.968;2023-06-22T06:23:08;19.30;40.40
939;DHT22;456;53.584;9.968;2023-06-22T06:25:33;19.20;41.00
939;DHT22;456;53.584;9.968;2023-06-22T06:27:59;19.20;40.20
939;DHT22;456;53.584;9.968;2023-06-22T06:30:25;19.20;40.50
939;DHT22;456;53.584;9.968;2023-06-22T06:32:50;19.20;40.90
939;DHT22;456;53.584;9.968;2023-06-22T06:35:16;19.30;40.60
939;DHT22;456;53.584;9.968;2023-06-22T06:37:45;19.20;41.60
939;DHT22;456;53.584;9.968;2023-06-22T06:40:12;19.20;40.00
939;DHT22;456;53.584;9.968;2023-06-22T06:42:41;19.30;40.80
939;DHT22;456;53.584;9.968;2023-06-22T06:45:14;19.20;40.60
939;DHT22;456;53.584;9.968;2023-06-22T06:47:40;19.30;40.20
939;DHT22;456;53.584;9.968;2023-06-22T06:50:06;19.20;41.00
939;DHT22;456;53.584;9.968;2023-06-22T06:52:32;19.20;39.60
939;DHT22;456;53.584;9.968;2023-06-22T06:54:58;19.20;40.70
939;DHT22;456;53.584;9.968;2023-06-22T06:57:24;19.20;40.00
939;DHT22;456;53.584;9.968;2023-06-22T06:59:54;19.30;40.60
939;DHT22;456;53.584;9.968;2023-06-22T07:02:20;19.20;40.90
939;DHT22;456;53.584;9.968;2023-06-22T07:04:46;19.30;39.70
939;DHT22;456;53.584;9.968;2023-06-22T07:07:12;19.20;40.80
939;DHT22;456;53.584;9.968;2023-06-22T07:09:37;19.20;39.90
939;DHT22;456;53.584;9.968;2023-06-22T07:12:03;19.30;40.40
939;DHT22;456;53.584;9.968;2023-06-22T07:14:29;19.20;40.80
939;DHT22;456;53.584;9.968;2023-06-22T07:16:58;19.20;39.90
939;DHT22;456;53.584;9.968;2023-06-22T07:19:27;19.20;40.80
939;DHT22;456;53.584;9.968;2023-06-22T07:21:54;19.20;40.00
939;DHT22;456;53.584;9.968;2023-06-22T07:24:20;19.30;40.50
939;DHT22;456;53.584;9.968;2023-06-22T07:26:50;19.20;40.40
939;DHT22;456;53.584;9.968;2023-06-22T07:29:20;19.30;40.20
939;DHT22;456;53.584;9.968;2023-06-22T07:31:47;19.20;41.10
939;DHT22;456;53.584;9.968;2023-06-22T07:34:13;19.30;39.50
939;DHT22;456;53.584;9.968;2023-06-22T07:36:38;19.30;40.80
939;DHT22;456;53.584;9.968;2023-06-22T07:39:04;19.20;40.10
939;DHT22;456;53.584;9.968;2023-06-22T07:41:30;19.30;40.10
939;DHT22;456;53.584;9.968;2023-06-22T07:43:56;19.20;41.00
939;DHT22;456;53.584;9.968;2023-06-22T07:46:22;19.20;39.30
939;DHT22;456;53.584;9.968;2023-06-22T07:48:48;19.20;40.10
939;DHT22;456;53.584;9.968;2023-06-22T07:51:13;19.20;39.90
939;DHT22;456;53.584;9.968;2023-06-22T07:53:43;19.30;40.10
939;DHT22;456;53.584;9.968;2023-06-22T07:56:13;19.20;40.30
939;DHT22;456;53.584;9.968;2023-06-22T07:58:44;19.30;39.20
939;DHT22;456;53.584;9.968;2023-06-22T08:01:10;19.20;40.40
939;DHT22;456;53.584;9.968;2023-06-22T08:03:36;19.20;39.60
939;DHT22;456;53.584;9.968;2023-06-22T08:06:02;19.30;40.00
939;DHT22;456;53.584;9.968;2023-06-22T08:08:28;19.20;40.20
939;DHT22;456;53.584;9.968;2023-06-22T08:10:54;19.20;39.30
939;DHT22;456;53.584;9.968;2023-06-22T08:13:19;19.20;40.20
939;DHT22;456;53.584;9.968;2023-06-22T08:15:45;19.20;39.40
939;DHT22;456;53.584;9.968;2023-06-22T08:18:11;19.20;39.60
939;DHT22;456;53.584;9.968;2023-06-22T08:20:36;19.20;39.90
939;DHT22;456;53.584;9.968;2023-06-22T08:23:02;19.20;39.30
939;DHT22;456;53.584;9.968;2023-06-22T08:25:32;19.20;40.10
939;DHT22;456;53.584;9.968;2023-06-22T08:27:58;19.20;38.90
939;DHT22;456;53.584;9.968;2023-06-22T08:30:23;19.20;40.10
939;DHT22;456;53.584;9.968;2023-06-22T08:32:49;19.20;39.70
939;DHT22;456;53.584;9.968;2023-06-22T08:35:15;19.30;39.50
939;DHT22;456;53.584;9.968;2023-06-22T08:37:40;19.20;40.00
939;DHT22;456;53.584;9.968;2023-06-22T08:40:08;19.20;38.60
939;DHT22;456;53.584;9.968;2023-06-22T08:42:35;19.20;39.40
939;DHT22;456;53.584;9.968;2023-06-22T08:45:01;19.20;39.40
939;DHT22;456;53.584;9.968;2023-06-22T08:47:29;19.20;39.20
939;DHT22;456;53.584;9.968;2023-06-22T08:49:55;19.20;40.10
939;DHT22;456;53.584;9.968;2023-06-22T08:52:21;19.20;38.40
939;DHT22;456;53.584;9.968;2023-06-22T08:54:48;19.20;39.30
939;DHT22;456;53.584;9.968;2023-06-22T08:57:14;19.20;39.10
939;DHT22;456;53.584;9.968;2023-06-22T08:59:40;19.20;39.30
939;DHT22;456;53.584;9.968;2023-06-22T09:02:06;19.20;40.60
939;DHT22;456;53.584;9.968;2023-06-22T09:04:31;19.20;38.30
939;DHT22;456;53.584;9.968;2023-06-22T09:07:00;19.20;39.70
939;DHT22;456;53.584;9.968;2023-06-22T09:09:26;19.20;39.00
939;DHT22;456;53.584;9.968;2023-06-22T09:11:51;19.20;39.10
939;DHT22;456;53.584;9.968;2023-06-22T09:14:17;19.20;39.70
939;DHT22;456;53.584;9.968;2023-06-22T09:16:42;19.20;38.50
939;DHT22;456;53.584;9.968;2023-06-22T09:19:08;19.20;39.50
939;DHT22;456;53.584;9.968;2023-06-22T09:21:34;19.20;38.70
939;DHT22;456;53.584;9.968;2023-06-22T09:24:00;19.20;39.50
939;DHT22;456;53.584;9.968;2023-06-22T09:26:25;19.10;40.10
939;DHT22;456;53.584;9.968;2023-06-22T09:28:51;19.00;40.60
939;DHT22;456;53.584;9.968;2023-06-22T09:31:16;18.90;40.90
939;DHT22;456;53.584;9.968;2023-06-22T09:33:42;18.90;41.40
939;DHT22;456;53.584;9.968;2023-06-22T09:36:08;18.80;41.60
939;DHT22;456;53.584;9.968;2023-06-22T09:38:37;18.90;42.10
939;DHT22;456;53.584;9.968;2023-06-22T09:41:03;18.80;41.90
939;DHT22;456;53.584;9.968;2023-06-22T09:43:32;18.80;41.90
939;DHT22;456;53.584;9.968;2023-06-22T09:45:57;18.80;41.90
939;DHT22;456;53.584;9.968;2023-06-22T09:48:23;18.70;41.90
939;DHT22;456;53.584;9.968;2023-06-22T09:50:49;18.80;41.90
939;DHT22;456;53.584;9.968;2023-06-22T09:53:14;18.70;41.90
939;DHT22;456;53.584;9.968;2023-06-22T09:55:40;18.70;41.90
939;DHT22;456;53.584;9.968;2023-06-22T09:58:05;18.80;42.00
939;DHT22;456;53.584;9.968;2023-06-22T10:00:31;18.70;41.90
939;DHT22;456;53.584;9.968;2023-06-22T10:02:57;18.70;42.10
939;DHT22;456;53.584;9.968;2023-06-22T10:05:23;18.70;42.20
939;DHT22;456;53.584;9.968;2023-06-22T10:07:49;18.70;42.20
939;DHT22;456;53.584;9.968;2023-06-22T10:10:14;18.70;42.30
939;DHT22;456;53.584;9.968;2023-06-22T10:12:47;18.70;42.30
939;DHT22;456;53.584;9.968;2023-06-22T10:15:14;18.70;42.40
939;DHT22;456;53.584;9.968;2023-06-22T10:17:40;18.70;42.50
939;DHT22;456;53.584;9.968;2023-06-22T10:20:06;18.70;42.60
939;DHT22;456;53.584;9.968;2023-06-22T10:22:43;18.60;42.50
939;DHT22;456;53.584;9.968;2023-06-22T10:25:09;18.70;42.70
939;DHT22;456;53.584;9.968;2023-06-22T10:27:35;18.70;42.80
939;DHT22;456;53.584;9.968;2023-06-22T10:30:01;18.60;42.70
939;DHT22;456;53.584;9.968;2023-06-22T10:32:27;18.70;42.90
939;DHT22;456;53.584;9.968;2023-06-22T10:34:54;18.60;42.90
939;DHT22;456;53.584;9.968;2023-06-22T10:37:19;18.60;42.90
939;DHT22;456;53.584;9.968;2023-06-22T10:39:45;18.60;43.00
939;DHT22;456;53.584;9.968;2023-06-22T10:42:11;18.60;43.10
939;DHT22;456;53.584;9.968;2023-06-22T10:44:38;18.60;43.10
939;DHT22;456;53.584;9.968;2023-06-22T10:47:04;18.60;43.10
939;DHT22;456;53.584;9.968;2023-06-22T10:49:30;18.60;43.10
939;DHT22;456;53.584;9.968;2023-06-22T10:51:55;18.60;43.20
939;DHT22;456;53.584;9.968;2023-06-22T10:54:21;18.60;43.30
939;DHT22;456;53.584;9.968;2023-06-22T10:56:46;18.60;43.30
939;DHT22;456;53.584;9.968;2023-06-22T10:59:12;18.60;43.20
939;DHT22;456;53.584;9.968;2023-06-22T11:01:38;18.60;43.30
939;DHT22;456;53.584;9.968;2023-06-22T11:04:03;18.60;43.50
939;DHT22;456;53.584;9.968;2023-06-22T11:06:29;18.60;43.60
939;DHT22;456;53.584;9.968;2023-06-22T11:08:55;18.60;43.60
939;DHT22;456;53.584;9.968;2023-06-22T11:11:21;18.60;43.70
939;DHT22;456;53.584;9.968;2023-06-22T11:13:46;18.60;43.70
939;DHT22;456;53.584;9.968;2023-06-22T11:16:12;18.60;43.80
939;DHT22;456;53.584;9.968;2023-06-22T11:18:38;18.60;43.80
939;DHT22;456;53.584;9.968;2023-06-22T11:21:03;18.60;43.70
939;DHT22;456;53.584;9.968;2023-06-22T11:23:29;18.60;43.60
939;DHT22;456;53.584;9.968;2023-06-22T11:25:54;18.60;43.80
939;DHT22;456;53.584;9.968;2023-06-22T11:28:20;18.60;44.00
939;DHT22;456;53.584;9.968;2023-06-22T11:30:46;18.60;44.00
939;DHT22;456;53.584;9.968;2023-06-22T11:33:11;18.50;44.00
939;DHT22;456;53.584;9.968;2023-06-22T11:35:37;18.60;44.00
939;DHT22;456;53.584;9.968;2023-06-22T11:38:03;18.60;44.10
939;DHT22;456;53.584;9.968;2023-06-22T11:40:30;18.50;44.10
939;DHT22;456;53.584;9.968;2023-06-22T11:42:55;18.60;44.20
939;DHT22;456;53.584;9.968;2023-06-22T11:45:21;18.60;44.10
939;DHT22;456;53.584;9.968;2023-06-22T11:47:47;18.50;44.10
939;DHT22;456;53.584;9.968;2023-06-22T11:50:13;18.50;44.20
939;DHT22;456;53.584;9.968;2023-06-22T11:52:38;18.60;44.20
939;DHT22;456;53.584;9.968;2023-06-22T11:55:04;18.50;44.30
939;DHT22;456;53.584;9.968;2023-06-22T11:57:33;18.60;44.10
939;DHT22;456;53.584;9.968;2023-06-22T11:59:59;18.50;44.00
939;DHT22;456;53.584;9.968;2023-06-22T12:02:25;18.50;44.00
939;DHT22;456;53.584;9.968;2023-06-22T12:04:50;18.50;44.10
939;DHT22;456;53.584;9.968;2023-06-22T12:07:18;18.50;43.70
939;DHT22;456;53.584;9.968;2023-06-22T12:09:43;18.50;43.90
939;DHT22;456;53.584;9.968;2023-06-22T12:12:09;18.50;44.10
939;DHT22;456;53.584;9.968;2023-06-22T12:14:35;18.50;43.70
939;DHT22;456;53.584;9.968;2023-06-22T12:17:01;18.50;44.10
939;DHT22;456;53.584;9.968;2023-06-22T12:19:26;18.50;43.90
939;DHT22;456;53.584;9.968;2023-06-22T12:21:52;18.50;44.10
939;DHT22;456;53.584;9.968;2023-06-22T12:24:17;18.50;43.90
939;DHT22;456;53.584;9.968;2023-06-22T12:26:43;18.50;43.90
939;DHT22;456;53.584;9.968;2023-06-22T12:29:09;18.50;43.90
939;DHT22;456;53.584;9.968;2023-06-22T12:31:36;18.50;43.70
939;DHT22;456;53.584;9.968;2023-06-22T12:34:04;18.50;43.90
939;DHT22;456;53.584;9.968;2023-06-22T12:36:29;18.50;43.80
939;DHT22;456;53.584;9.968;2023-06-22T12:38:55;18.50;44.70
939;DHT22;456;53.584;9.968;2023-06-22T12:41:20;18.50;43.90
939;DHT22;456;53.584;9.968;2023-06-22T12:43:46;18.50;43.70
939;DHT22;456;53.584;9.968;2023-06-22T12:46:12;18.50;43.80
939;DHT22;456;53.584;9.968;2023-06-22T12:48:37;18.50;43.80
939;DHT22;456;53.584;9.968;2023-06-22T12:51:07;18.50;43.70
939;DHT22;456;53.584;9.968;2023-06-22T12:53:33;18.50;43.80
939;DHT22;456;53.584;9.968;2023-06-22T12:55:59;18.50;43.80
939;DHT22;456;53.584;9.968;2023-06-22T12:58:25;18.50;43.60
939;DHT22;456;53.584;9.968;2023-06-22T13:00:50;18.50;43.70
939;DHT22;456;53.584;9.968;2023-06-22T13:03:16;18.50;43.60
939;DHT22;456;53.584;9.968;2023-06-22T13:05:41;18.50;43.60
939;DHT22;456;53.584;9.968;2023-06-22T13:08:07;18.50;43.60
939;DHT22;456;53.584;9.968;2023-06-22T13:10:33;18.50;43.70
939;DHT22;456;53.584;9.968;2023-06-22T13:12:59;18.50;43.70
939;DHT22;456;53.584;9.968;2023-06-22T13:15:29;18.50;43.70
939;DHT22;456;53.584;9.968;2023-06-22T13:17:55;18.50;43.70
939;DHT22;456;53.584;9.968;2023-06-22T13:20:21;18.50;43.70
939;DHT22;456;53.584;9.968;2023-06-22T13:22:46;18.50;43.70
939;DHT22;456;53.584;9.968;2023-06-22T13:25:12;18.50;43.70
939;DHT22;456;53.584;9.968;2023-06-22T13:27:42;18.50;43.70
939;DHT22;456;53.584;9.968;2023-06-22T13:30:08;18.50;43.80
939;DHT22;456;53.584;9.968;2023-06-22T13:32:34;18.50;43.80
939;DHT22;456;53.584;9.968;2023-06-22T13:35:00;18.50;43.70
939;DHT22;456;53.584;9.968;2023-06-22T13:37:26;18.50;43.70
939;DHT22;456;53.584;9.968;2023-06-22T13:39:52;18.50;43.80
939;DHT22;456;53.584;9.968;2023-06-22T13:42:18;18.50;43.90
939;DHT22;456;53.584;9.968;2023-06-22T13:44:43;18.50;43.80
939;DHT22;456;53.584;9.968;2023-06-22T13:47:09;18.50;43.70
939;DHT22;456;53.584;9.968;2023-06-22T13:49:35;18.50;44.40
939;DHT22;456;53.584;9.968;2023-06-22T13:52:00;18.50;43.80
939;DHT22;456;53.584;9.968;2023-06-22T13:54:26;18.50;43.70
939;DHT22;456;53.584;9.968;2023-06-22T13:56:52;18.50;43.70
939;DHT22;456;53.584;9.968;2023-06-22T13:59:18;18.50;43.70
939;DHT22;456;53.584;9.968;2023-06-22T14:01:43;18.50;43.70
939;DHT22;456;53.584;9.968;2023-06-22T14:04:10;18.50;43.60
939;DHT22;456;53.584;9.968;2023-06-22T14:06:35;18.50;43.60
939;DHT22;456;53.584;9.968;2023-06-22T14:09:01;18.50;43.70
939;DHT22;456;53.584;9.968;2023-06-22T14:11:27;18.50;43.70
939;DHT22;456;53.584;9.968;2023-06-22T14:13:52;18.50;43.70
939;DHT22;456;53.584;9.968;2023-06-22T14:16:18;18.40;43.60
939;DHT22;456;53.584;9.968;2023-06-22T14:18:45;18.50;43.60
939;DHT22;456;53.584;9.968;2023-06-22T14:21:11;18.50;44.40
939;DHT22;456;53.584;9.968;2023-06-22T14:23:36;18.50;43.60
939;DHT22;456;53.584;9.968;2023-06-22T14:26:03;18.50;43.70
939;DHT22;456;53.584;9.968;2023-06-22T14:28:29;18.50;43.60
939;DHT22;456;53.584;9.968;2023-06-22T14:30:54;18.40;43.60
939;DHT22;456;53.584;9.968;2023-06-22T14:33:20;18.50;44.40
939;DHT22;456;53.584;9.968;2023-06-22T14:35:45;18.40;43.60
939;DHT22;456;53.584;9.968;2023-06-22T14:38:11;18.50;43.70
939;DHT22;456;53.584;9.968;2023-06-22T14:40:36;18.50;43.70
939;DHT22;456;53.584;9.968;2023-06-22T14:43:02;18.50;43.80
939;DHT22;456;53.584;9.968;2023-06-22T14:45:28;18.40;43.70
939;DHT22;456;53.584;9.968;2023-06-22T14:47:53;18.50;43.80
939;DHT22;456;53.584;9.968;2023-06-22T14:50:19;18.40;43.80
939;DHT22;456;53.584;9.968;2023-06-22T14:52:44;18.50;44.00
939;DHT22;456;53.584;9.968;2023-06-22T14:55:10;18.40;43.90
939;DHT22;456;53.584;9.968;2023-06-22T14:57:36;18.40;43.70
939;DHT22;456;53.584;9.968;2023-06-22T15:00:02;18.40;43.80
939;DHT22;456;53.584;9.968;2023-06-22T15:02:28;18.50;43.90
939;DHT22;456;53.584;9.968;2023-06-22T15:04:53;18.50;43.90
939;DHT22;456;53.584;9.968;2023-06-22T15:07:19;18.40;43.80
939;DHT22;456;53.584;9.968;2023-06-22T15:09:45;18.40;43.70
939;DHT22;456;53.584;9.968;2023-06-22T15:12:11;18.40;43.80
939;DHT22;456;53.584;9.968;2023-06-22T15:14:39;18.40;43.90
939;DHT22;456;53.584;9.968;2023-06-22T15:17:05;18.40;43.90
939;DHT22;456;53.584;9.968;2023-06-22T15:19:31;18.50;43.80
939;DHT22;456;53.584;9.968;2023-06-22T15:21:56;18.40;43.90
939;DHT22;456;53.584;9.968;2023-06-22T15:24:22;18.40;43.80
939;DHT22;456;53.584;9.968;2023-06-22T15:26:47;18.40;44.00
939;DHT22;456;53.584;9.968;2023-06-22T15:29:13;18.40;43.90
939;DHT22;456;53.584;9.968;2023-06-22T15:31:39;18.40;43.90
939;DHT22;456;53.584;9.968;2023-06-22T15:34:04;18.40;43.80
939;DHT22;456;53.584;9.968;2023-06-22T15:36:30;18.40;43.80
939;DHT22;456;53.584;9.968;2023-06-22T15:38:56;18.40;43.90
939;DHT22;456;53.584;9.968;2023-06-22T15:41:21;18.40;43.90
939;DHT22;456;53.584;9.968;2023-06-22T15:43:48;18.40;43.80
939;DHT22;456;53.584;9.968;2023-06-22T15:46:14;18.40;43.70
939;DHT22;456;53.584;9.968;2023-06-22T15:48:43;18.40;43.80
939;DHT22;456;53.584;9.968;2023-06-22T15:51:08;18.40;43.80
939;DHT22;456;53.584;9.968;2023-06-22T15:53:34;18.40;43.80
939;DHT22;456;53.584;9.968;2023-06-22T15:55:59;18.40;43.90
939;DHT22;456;53.584;9.968;2023-06-22T15:58:25;18.40;43.70
939;DHT22;456;53.584;9.968;2023-06-22T16:00:50;18.40;43.80
939;DHT22;456;53.584;9.968;2023-06-22T16:03:16;18.40;43.90
939;DHT22;456;53.584;9.968;2023-06-22T16:05:42;18.40;43.80
939;DHT22;456;53.584;9.968;2023-06-22T16:08:11;18.40;44.00
939;DHT22;456;53.584;9.968;2023-06-22T16:10:39;18.40;44.10
939;DHT22;456;53.584;9.968;2023-06-22T16:13:04;18.40;43.90
939;DHT22;456;53.584;9.968;2023-06-22T16:15:30;18.40;43.90
939;DHT22;456;53.584;9.968;2023-06-22T16:17:56;18.40;43.90
939;DHT22;456;53.584;9.968;2023-06-22T16:20:21;18.40;43.90
939;DHT22;456;53.584;9.968;2023-06-22T16:22:47;18.40;44.10
939;DHT22;456;53.584;9.968;2023-06-22T16:25:13;18.40;44.00
939;DHT22;456;53.584;9.968;2023-06-22T16:27:39;18.40;43.90
939;DHT22;456;53.584;9.968;2023-06-22T16:30:07;18.40;43.90
939;DHT22;456;53.584;9.968;2023-06-22T16:32:33;18.40;44.10
939;DHT22;456;53.584;9.968;2023-06-22T16:34:59;18.40;44.00
939;DHT22;456;53.584;9.968;2023-06-22T16:37:24;18.40;44.10